Time;durP1;ratioP1;P1;durP2;ratioP2;P2;SDS_P1;SDS_P2;PMS_P1;PMS_P2;Temp;Humidity;BMP_temperature;BMP_pressure;BME280_temperature;BME280_humidity;BME280_pressure;Samples;Min_cycle;Max_cycle;Signal;HPM_P1;HPM_P2
2022/10/27 00:01:17;;;;;;;6.35;2.10;;;;;;;;;;4940140;28;20419;-80
2022/10/27 00:03:42;;;;;;;5.25;2.60;;;;;;;;;;4956237;29;20047;-80
2022/10/27 00:06:07;;;;;;;3.60;2.20;;;;;;;;;;4956187;28;20098;-79
2022/10/27 00:08:34;;;;;;;4.93;2.15;;;;;;;;;;4940087;29;20035;-80
2022/10/27 00:11:01;;;;;;;4.38;2.58;;;;;;;;;;4956407;29;20031;-80
2022/10/27 00:13:28;;;;;;;4.22;2.08;;;;;;;;;;4956161;29;20023;-79
2022/10/27 00:15:58;;;;;;;5.70;2.50;;;;;;;;;;4957240;29;20032;-79
2022/10/27 00:18:24;;;;;;;3.67;2.25;;;;;;;;;;4956369;29;20019;-79
2022/10/27 00:21:17;;;;;;;3.53;2.20;;;;;;;;;;4955728;28;20046;-79
2022/10/27 00:23:42;;;;;;;5.05;2.42;;;;;;;;;;4956843;28;20039;-79
2022/10/27 00:26:10;;;;;;;4.70;2.25;;;;;;;;;;4955890;29;20114;-80
2022/10/27 00:28:36;;;;;;;4.25;2.40;;;;;;;;;;4940592;29;20033;-80
2022/10/27 00:31:13;;;;;;;5.13;2.45;;;;;;;;;;4939753;28;20043;-80
2022/10/27 00:33:39;;;;;;;4.40;2.20;;;;;;;;;;4939681;28;20024;-80
2022/10/27 00:36:10;;;;;;;4.25;2.40;;;;;;;;;;4955977;29;20042;-80
2022/10/27 00:38:36;;;;;;;5.03;3.10;;;;;;;;;;4955914;29;20027;-80
2022/10/27 00:41:02;;;;;;;3.83;2.20;;;;;;;;;;4955603;29;20031;-80
2022/10/27 00:43:30;;;;;;;5.93;2.60;;;;;;;;;;4956977;28;20089;-80
2022/10/27 00:46:00;;;;;;;6.15;1.90;;;;;;;;;;4955626;29;20027;-80
2022/10/27 00:48:26;;;;;;;5.80;2.92;;;;;;;;;;4939549;29;20038;-80
2022/10/27 00:50:52;;;;;;;4.20;2.20;;;;;;;;;;4956714;28;20474;-80
2022/10/27 00:53:18;;;;;;;3.75;2.08;;;;;;;;;;4955978;29;20086;-79
2022/10/27 00:55:43;;;;;;;4.57;2.10;;;;;;;;;;4955457;29;20035;-79
2022/10/27 00:58:11;;;;;;;4.38;2.50;;;;;;;;;;4955258;29;20082;-79
2022/10/27 01:00:38;;;;;;;4.82;2.30;;;;;;;;;;4954976;29;20541;-80
2022/10/27 01:03:04;;;;;;;7.05;2.50;;;;;;;;;;4955480;29;20035;-80
2022/10/27 01:05:30;;;;;;;8.30;2.65;;;;;;;;;;4955355;29;20031;-80
2022/10/27 01:07:58;;;;;;;4.93;2.30;;;;;;;;;;4939098;29;20042;-80
2022/10/27 01:10:25;;;;;;;4.57;2.50;;;;;;;;;;4955058;29;20031;-80
2022/10/27 01:12:50;;;;;;;2.90;2.28;;;;;;;;;;4938970;29;20035;-80
2022/10/27 01:15:15;;;;;;;5.97;2.47;;;;;;;;;;4955000;29;20027;-80
2022/10/27 01:17:57;;;;;;;5.25;2.55;;;;;;;;;;4954867;29;20038;-80
2022/10/27 01:20:39;;;;;;;4.82;2.20;;;;;;;;;;4954885;29;20030;-80
2022/10/27 01:23:13;;;;;;;3.70;2.20;;;;;;;;;;4938723;29;20035;-80
2022/10/27 01:26:25;;;;;;;5.07;2.50;;;;;;;;;;4955084;29;20034;-81
2022/10/27 01:29:17;;;;;;;5.00;2.35;;;;;;;;;;4938676;29;20027;-80
2022/10/27 01:31:50;;;;;;;5.82;2.40;;;;;;;;;;4956136;28;20027;-80
2022/10/27 01:34:38;;;;;;;4.43;2.40;;;;;;;;;;4938156;28;20035;-80
2022/10/27 01:37:06;;;;;;;4.53;2.42;;;;;;;;;;4938507;28;20133;-80
2022/10/27 01:40:05;;;;;;;5.07;2.25;;;;;;;;;;4955754;28;20036;-79
2022/10/27 01:42:42;;;;;;;5.20;2.65;;;;;;;;;;4945747;29;20117;-80
2022/10/27 01:45:10;;;;;;;6.63;2.78;;;;;;;;;;4955569;28;20024;-80
2022/10/27 01:47:36;;;;;;;5.47;2.60;;;;;;;;;;4938452;29;20031;-80
2022/10/27 01:50:03;;;;;;;3.95;2.25;;;;;;;;;;4954616;29;20031;-80
2022/10/27 01:52:48;;;;;;;6.60;2.50;;;;;;;;;;4954487;28;20118;-80
2022/10/27 01:55:18;;;;;;;3.88;2.42;;;;;;;;;;4938212;28;20034;-79
2022/10/27 01:57:50;;;;;;;6.00;2.63;;;;;;;;;;4954359;29;20023;-80
2022/10/27 02:00:16;;;;;;;5.68;2.22;;;;;;;;;;4954796;29;20031;-80
2022/10/27 02:02:53;;;;;;;3.65;2.50;;;;;;;;;;4954056;29;20066;-80
2022/10/27 02:05:25;;;;;;;7.40;2.75;;;;;;;;;;4954026;28;20038;-81
2022/10/27 02:08:12;;;;;;;5.32;2.38;;;;;;;;;;4938157;29;20470;-80
2022/10/27 02:11:01;;;;;;;4.85;2.38;;;;;;;;;;4954096;28;20470;-80
2022/10/27 02:13:28;;;;;;;7.55;2.08;;;;;;;;;;4937960;29;20034;-80
2022/10/27 02:15:57;;;;;;;5.07;2.40;;;;;;;;;;4955221;28;20031;-80
2022/10/27 02:18:29;;;;;;;5.60;2.33;;;;;;;;;;4954093;29;20078;-80
2022/10/27 02:20:58;;;;;;;8.15;2.65;;;;;;;;;;4953996;29;20043;-79
2022/10/27 02:23:24;;;;;;;3.83;2.20;;;;;;;;;;4938129;28;20533;-80
2022/10/27 02:25:56;;;;;;;6.38;2.78;;;;;;;;;;4955388;28;20042;-80
2022/10/27 02:28:29;;;;;;;2.83;2.05;;;;;;;;;;4954464;29;20027;-79
2022/10/27 02:30:55;;;;;;;6.35;2.42;;;;;;;;;;4937873;29;20031;-79
2022/10/27 02:33:21;;;;;;;3.53;2.30;;;;;;;;;;4937791;28;20118;-79
2022/10/27 02:35:46;;;;;;;4.20;2.15;;;;;;;;;;4953796;28;20122;-79
2022/10/27 02:38:12;;;;;;;3.80;2.60;;;;;;;;;;4953849;29;20031;-79
2022/10/27 02:40:38;;;;;;;4.53;2.40;;;;;;;;;;4953832;29;20126;-79
2022/10/27 02:43:03;;;;;;;5.82;2.00;;;;;;;;;;4954975;28;20055;-79
2022/10/27 02:45:28;;;;;;;3.15;2.10;;;;;;;;;;4956550;28;20438;-79
2022/10/27 02:47:54;;;;;;;5.40;2.28;;;;;;;;;;4959154;28;20038;-79
2022/10/27 02:50:19;;;;;;;5.05;2.45;;;;;;;;;;4958863;28;20126;-79
2022/10/27 02:52:44;;;;;;;3.35;2.20;;;;;;;;;;4959491;28;20031;-79
2022/10/27 02:55:10;;;;;;;5.63;2.30;;;;;;;;;;4957462;29;20549;-79
2022/10/27 02:57:35;;;;;;;3.33;2.30;;;;;;;;;;4958702;28;20398;-79
2022/10/27 03:00:01;;;;;;;4.38;2.20;;;;;;;;;;4959458;28;20039;-79
2022/10/27 03:02:26;;;;;;;3.53;1.98;;;;;;;;;;4958485;28;20066;-79
2022/10/27 03:04:51;;;;;;;4.50;2.38;;;;;;;;;;4957551;29;20038;-79
2022/10/27 03:07:18;;;;;;;5.65;2.25;;;;;;;;;;4957542;28;20051;-80
2022/10/27 03:09:43;;;;;;;3.75;2.25;;;;;;;;;;4958611;28;20055;-80
2022/10/27 03:12:09;;;;;;;5.45;2.20;;;;;;;;;;4957729;29;20035;-80
2022/10/27 03:14:34;;;;;;;4.20;2.10;;;;;;;;;;4941209;29;20394;-80
2022/10/27 03:16:59;;;;;;;4.03;2.25;;;;;;;;;;4958363;28;20094;-80
2022/10/27 03:19:25;;;;;;;4.32;1.80;;;;;;;;;;4958600;28;20042;-80
2022/10/27 03:21:50;;;;;;;4.78;2.35;;;;;;;;;;4958554;28;20456;-80
2022/10/27 03:24:15;;;;;;;3.67;2.28;;;;;;;;;;4956781;28;20043;-80
2022/10/27 03:26:41;;;;;;;4.22;2.33;;;;;;;;;;4958409;28;20031;-80
2022/10/27 03:29:06;;;;;;;4.03;2.30;;;;;;;;;;4941710;29;20419;-80
2022/10/27 03:31:32;;;;;;;4.55;2.00;;;;;;;;;;4940917;29;20031;-80
2022/10/27 03:33:57;;;;;;;3.92;2.17;;;;;;;;;;4940790;29;20395;-80
2022/10/27 03:36:22;;;;;;;3.80;2.38;;;;;;;;;;4957066;29;20031;-80
2022/10/27 03:38:48;;;;;;;3.25;2.15;;;;;;;;;;4958196;28;20031;-80
2022/10/27 03:41:13;;;;;;;3.25;2.13;;;;;;;;;;4940681;29;20043;-79
2022/10/27 03:43:39;;;;;;;2.15;1.77;;;;;;;;;;4958078;28;20039;-79
2022/10/27 03:46:04;;;;;;;3.47;2.08;;;;;;;;;;4957781;28;20035;-79
2022/10/27 03:48:29;;;;;;;4.28;2.15;;;;;;;;;;4925233;28;20035;-79
2022/10/27 03:50:55;;;;;;;4.15;2.22;;;;;;;;;;4956516;29;20507;-79
2022/10/27 03:53:20;;;;;;;3.22;2.28;;;;;;;;;;4940395;28;20046;-79
2022/10/27 03:55:47;;;;;;;5.70;2.38;;;;;;;;;;4956096;28;20031;-79
2022/10/27 03:58:13;;;;;;;3.42;1.83;;;;;;;;;;4956304;28;20046;-80
2022/10/27 04:00:39;;;;;;;3.20;1.63;;;;;;;;;;4956532;29;20038;-80
2022/10/27 04:03:05;;;;;;;5.03;2.03;;;;;;;;;;4956411;29;20055;-79
2022/10/27 04:05:30;;;;;;;3.20;2.08;;;;;;;;;;4941504;29;20047;-79
2022/10/27 04:07:56;;;;;;;2.75;1.95;;;;;;;;;;4957041;29;20479;-80
2022/10/27 04:10:21;;;;;;;5.75;2.20;;;;;;;;;;4956319;28;20042;-79
2022/10/27 04:12:48;;;;;;;3.78;2.40;;;;;;;;;;4940348;28;20089;-79
2022/10/27 04:15:13;;;;;;;3.63;2.10;;;;;;;;;;4956336;29;20068;-79
2022/10/27 04:17:39;;;;;;;3.88;2.17;;;;;;;;;;4956966;28;20546;-79
2022/10/27 04:20:04;;;;;;;3.75;1.80;;;;;;;;;;4939931;28;20051;-80
2022/10/27 04:22:30;;;;;;;2.95;1.90;;;;;;;;;;4939894;29;20101;-79
2022/10/27 04:24:55;;;;;;;4.07;2.08;;;;;;;;;;4939576;29;20086;-80
2022/10/27 04:27:20;;;;;;;2.67;1.77;;;;;;;;;;4956073;29;20447;-79
2022/10/27 04:29:46;;;;;;;2.40;2.05;;;;;;;;;;4957005;28;20466;-79
2022/10/27 04:32:11;;;;;;;4.03;1.80;;;;;;;;;;4955475;29;20090;-79
2022/10/27 04:34:36;;;;;;;3.03;2.00;;;;;;;;;;4956654;28;20038;-80
2022/10/27 04:37:02;;;;;;;4.53;2.03;;;;;;;;;;4956693;28;20031;-80
2022/10/27 04:39:27;;;;;;;3.08;2.10;;;;;;;;;;4957024;28;20027;-80
2022/10/27 04:41:52;;;;;;;4.38;2.00;;;;;;;;;;4955710;29;20467;-80
2022/10/27 04:44:18;;;;;;;4.80;2.30;;;;;;;;;;4955368;29;20463;-80
2022/10/27 04:46:43;;;;;;;2.22;1.80;;;;;;;;;;4956942;28;20035;-80
2022/10/27 04:49:09;;;;;;;4.13;2.00;;;;;;;;;;4955185;29;20031;-79
2022/10/27 04:51:34;;;;;;;4.47;2.30;;;;;;;;;;4938930;29;20122;-79
2022/10/27 04:53:59;;;;;;;4.15;2.00;;;;;;;;;;4955071;29;20039;-81
2022/10/27 04:56:25;;;;;;;3.33;2.20;;;;;;;;;;4955301;29;20035;-80
2022/10/27 04:58:50;;;;;;;4.72;1.75;;;;;;;;;;4955092;28;20142;-80
2022/10/27 05:01:16;;;;;;;4.40;2.10;;;;;;;;;;4954843;29;20035;-80
2022/10/27 05:03:41;;;;;;;3.47;1.98;;;;;;;;;;4954912;29;20043;-79
2022/10/27 05:06:06;;;;;;;3.15;2.00;;;;;;;;;;4939140;28;20556;-79
2022/10/27 05:08:32;;;;;;;4.03;2.10;;;;;;;;;;4954315;28;20039;-79
2022/10/27 05:10:57;;;;;;;3.25;2.00;;;;;;;;;;4954754;28;20031;-80
2022/10/27 05:13:23;;;;;;;2.80;1.90;;;;;;;;;;4955095;29;20035;-80
2022/10/27 05:15:49;;;;;;;2.85;1.70;;;;;;;;;;4955066;28;20034;-79
2022/10/27 05:18:14;;;;;;;4.80;1.80;;;;;;;;;;4954645;28;20035;-79
2022/10/27 05:20:39;;;;;;;3.35;1.83;;;;;;;;;;4954684;28;20078;-80
2022/10/27 05:23:05;;;;;;;3.13;2.00;;;;;;;;;;4956077;28;20038;-80
2022/10/27 05:25:31;;;;;;;2.60;1.77;;;;;;;;;;4955894;28;20445;-81
2022/10/27 05:28:04;;;;;;;5.20;2.03;;;;;;;;;;4954805;29;20043;-80
2022/10/27 05:30:29;;;;;;;3.85;1.90;;;;;;;;;;4954549;28;20510;-80
2022/10/27 05:32:54;;;;;;;6.82;2.03;;;;;;;;;;4954666;29;20110;-80
2022/10/27 05:35:20;;;;;;;6.72;1.90;;;;;;;;;;4955887;28;20027;-81
2022/10/27 05:37:45;;;;;;;3.47;1.83;;;;;;;;;;4954520;28;20047;-81
2022/10/27 05:40:11;;;;;;;4.43;2.10;;;;;;;;;;4938807;29;20485;-81
2022/10/27 05:42:37;;;;;;;4.22;2.20;;;;;;;;;;4954564;29;20031;-79
2022/10/27 05:45:02;;;;;;;3.65;2.22;;;;;;;;;;4954429;29;20119;-79
2022/10/27 05:47:27;;;;;;;4.78;1.88;;;;;;;;;;4955643;28;20378;-79
2022/10/27 05:49:53;;;;;;;5.45;2.58;;;;;;;;;;4955401;28;20121;-79
2022/10/27 05:52:18;;;;;;;3.78;2.22;;;;;;;;;;4954319;29;20033;-79
2022/10/27 05:54:43;;;;;;;3.10;2.17;;;;;;;;;;4955443;28;20066;-79
2022/10/27 05:57:09;;;;;;;3.80;2.35;;;;;;;;;;4954234;29;20086;-79
2022/10/27 05:59:34;;;;;;;2.63;1.90;;;;;;;;;;4954371;29;20031;-79
2022/10/27 06:02:00;;;;;;;3.08;1.90;;;;;;;;;;4955433;28;20059;-80
2022/10/27 06:04:25;;;;;;;3.67;2.30;;;;;;;;;;4954394;29;20050;-80
2022/10/27 06:06:50;;;;;;;3.42;2.08;;;;;;;;;;4953784;28;20062;-79
2022/10/27 06:09:16;;;;;;;16.02;4.20;;;;;;;;;;4953811;29;20483;-79
2022/10/27 06:11:41;;;;;;;8.05;3.60;;;;;;;;;;4953952;29;20110;-79
2022/10/27 06:14:06;;;;;;;9.38;3.28;;;;;;;;;;4953996;29;20089;-78
2022/10/27 06:16:32;;;;;;;9.05;3.30;;;;;;;;;;4938211;29;20035;-79
2022/10/27 06:18:57;;;;;;;9.15;3.13;;;;;;;;;;4937604;29;20035;-79
2022/10/27 06:21:23;;;;;;;9.50;3.25;;;;;;;;;;4953665;29;20414;-79
2022/10/27 06:23:48;;;;;;;7.10;3.15;;;;;;;;;;4953474;29;20182;-79
2022/10/27 06:26:14;;;;;;;10.85;3.67;;;;;;;;;;4937342;29;20403;-80
2022/10/27 06:28:39;;;;;;;11.50;3.20;;;;;;;;;;4937486;29;20030;-81
2022/10/27 06:31:04;;;;;;;11.02;4.03;;;;;;;;;;4937671;29;20475;-81
2022/10/27 06:33:30;;;;;;;13.55;4.03;;;;;;;;;;4940225;28;20048;-79
2022/10/27 06:35:56;;;;;;;11.93;3.40;;;;;;;;;;4939539;29;20506;-80
2022/10/27 06:38:21;;;;;;;9.25;3.40;;;;;;;;;;4939449;28;20023;-81
2022/10/27 06:40:47;;;;;;;10.30;3.58;;;;;;;;;;4954083;29;20063;-80
2022/10/27 06:43:12;;;;;;;11.73;3.83;;;;;;;;;;4955119;28;20035;-79
2022/10/27 06:45:38;;;;;;;19.15;4.90;;;;;;;;;;4937771;28;20031;-78
2022/10/27 06:48:06;;;;;;;11.40;3.83;;;;;;;;;;4954149;29;20386;-78
2022/10/27 06:50:32;;;;;;;14.00;3.95;;;;;;;;;;4938210;29;20422;-78
2022/10/27 06:52:57;;;;;;;12.93;3.80;;;;;;;;;;4953728;29;20035;-77
2022/10/27 06:55:23;;;;;;;12.88;3.20;;;;;;;;;;4953953;28;20031;-78
2022/10/27 06:57:49;;;;;;;8.45;3.38;;;;;;;;;;4954820;28;20031;-78
2022/10/27 07:00:15;;;;;;;9.82;3.67;;;;;;;;;;4953457;29;20027;-78
2022/10/27 07:02:40;;;;;;;9.88;3.88;;;;;;;;;;4953381;29;20082;-77
2022/10/27 07:05:06;;;;;;;15.82;3.80;;;;;;;;;;4953295;28;20479;-79
2022/10/27 07:07:31;;;;;;;7.63;3.22;;;;;;;;;;4953323;29;20039;-78
2022/10/27 07:09:57;;;;;;;10.27;3.40;;;;;;;;;;4953552;29;20051;-78
2022/10/27 07:12:22;;;;;;;18.80;3.67;;;;;;;;;;4953151;29;20035;-78
2022/10/27 07:14:47;;;;;;;6.13;2.60;;;;;;;;;;4953843;29;20031;-78
2022/10/27 07:17:14;;;;;;;9.18;3.45;;;;;;;;;;4954420;28;20027;-77
2022/10/27 07:19:39;;;;;;;8.27;2.67;;;;;;;;;;4953879;29;20027;-78
2022/10/27 07:22:04;;;;;;;11.35;3.13;;;;;;;;;;4954788;28;20039;-78
2022/10/27 07:24:30;;;;;;;6.95;2.67;;;;;;;;;;4953593;29;20031;-78
2022/10/27 07:26:55;;;;;;;8.80;3.17;;;;;;;;;;4953595;28;20035;-78
2022/10/27 07:29:21;;;;;;;5.63;2.88;;;;;;;;;;4953057;28;20221;-77
2022/10/27 07:31:46;;;;;;;7.80;2.83;;;;;;;;;;4938922;28;20110;-79
2022/10/27 07:34:12;;;;;;;6.45;2.80;;;;;;;;;;4956641;29;20039;-78
2022/10/27 07:36:38;;;;;;;7.65;3.20;;;;;;;;;;4956790;29;20039;-78
2022/10/27 07:39:03;;;;;;;5.38;3.03;;;;;;;;;;4940558;28;20031;-79
2022/10/27 07:41:29;;;;;;;9.23;3.20;;;;;;;;;;4940476;29;20082;-79
2022/10/27 07:43:54;;;;;;;8.90;2.40;;;;;;;;;;4966888;28;20046;-83
2022/10/27 07:46:19;;;;;;;9.95;2.70;;;;;;;;;;4956751;28;20038;-84
2022/10/27 07:48:45;;;;;;;10.68;3.00;;;;;;;;;;4950104;28;20042;-84
2022/10/27 07:51:10;;;;;;;12.90;3.00;;;;;;;;;;4944456;29;20062;-84
2022/10/27 07:53:36;;;;;;;13.82;3.00;;;;;;;;;;4976012;28;20023;-83
2022/10/27 07:56:01;;;;;;;9.50;3.13;;;;;;;;;;4977151;28;20031;-83
2022/10/27 07:58:27;;;;;;;8.27;2.63;;;;;;;;;;4959395;28;20405;-82
2022/10/27 08:00:52;;;;;;;10.60;2.67;;;;;;;;;;4976031;28;20528;-82
2022/10/27 08:03:24;;;;;;;6.80;2.88;;;;;;;;;;4975480;28;20058;-82
2022/10/27 08:05:50;;;;;;;8.13;2.80;;;;;;;;;;4977288;28;20032;-80
2022/10/27 08:08:15;;;;;;;9.57;2.70;;;;;;;;;;4975205;28;20406;-82
2022/10/27 08:10:42;;;;;;;8.75;2.35;;;;;;;;;;4975419;28;20030;-81
2022/10/27 08:13:24;;;;;;;14.07;3.05;;;;;;;;;;4983373;28;20094;-80
2022/10/27 08:15:51;;;;;;;11.82;3.15;;;;;;;;;;4957280;29;20020;-81
2022/10/27 08:18:24;;;;;;;11.68;2.72;;;;;;;;;;4957738;28;20070;-81
2022/10/27 08:20:50;;;;;;;9.73;2.50;;;;;;;;;;4957880;29;20027;-83
2022/10/27 08:23:19;;;;;;;11.63;2.72;;;;;;;;;;4956262;28;20129;-83
2022/10/27 08:25:44;;;;;;;10.40;2.90;;;;;;;;;;4956909;28;20035;-81
2022/10/27 08:28:10;;;;;;;8.07;2.50;;;;;;;;;;4940198;28;20051;-81
2022/10/27 08:30:36;;;;;;;7.25;2.45;;;;;;;;;;4940084;29;20027;-83
2022/10/27 08:33:03;;;;;;;6.57;2.22;;;;;;;;;;4956493;28;20039;-82
2022/10/27 08:35:30;;;;;;;6.38;2.40;;;;;;;;;;4955715;29;20047;-83
2022/10/27 08:37:59;;;;;;;12.55;2.47;;;;;;;;;;4955744;28;20051;-84
2022/10/27 08:40:31;;;;;;;10.07;2.70;;;;;;;;;;4940193;29;20109;-86
2022/10/27 08:43:12;;;;;;;13.35;2.38;;;;;;;;;;4943931;28;20027;-88
2022/10/27 08:46:00;;;;;;;6.57;2.28;;;;;;;;;;4975172;28;20031;-87
2022/10/27 08:48:26;;;;;;;7.97;2.53;;;;;;;;;;4991136;28;20065;-85
2022/10/27 08:50:52;;;;;;;8.63;2.10;;;;;;;;;;4975163;28;20418;-87
2022/10/27 08:53:24;;;;;;;10.23;2.58;;;;;;;;;;4958493;28;20038;-85
2022/10/27 08:55:58;;;;;;;8.05;2.70;;;;;;;;;;4976095;28;20383;-84
2022/10/27 08:58:23;;;;;;;;;;;;;;;;;;4975248;28;20473;-85
2022/10/27 09:00:56;;;;;;;5.70;2.00;;;;;;;;;;4978102;28;19910;-87
2022/10/27 09:03:31;;;;;;;6.90;2.63;;;;;;;;;;4960991;28;20494;-87
2022/10/27 09:06:13;;;;;;;8.30;2.40;;;;;;;;;;4992252;28;20035;-86
2022/10/27 09:09:05;;;;;;;5.03;2.20;;;;;;;;;;4990515;28;20031;-86
2022/10/27 09:11:36;;;;;;;7.10;2.33;;;;;;;;;;4976143;28;20030;-86
2022/10/27 09:14:39;;;;;;;11.07;2.42;;;;;;;;;;4974884;28;20058;-86
2022/10/27 09:17:11;;;;;;;4.95;2.00;;;;;;;;;;4956253;28;20023;-86
2022/10/27 09:20:18;;;;;;;4.00;2.08;;;;;;;;;;4955427;28;20039;-86
2022/10/27 09:22:43;;;;;;;4.78;2.05;;;;;;;;;;4956809;28;20056;-86
2022/10/27 09:25:16;;;;;;;6.38;2.33;;;;;;;;;;4955045;28;20040;-81
2022/10/27 09:27:43;;;;;;;6.60;2.25;;;;;;;;;;4938679;29;20031;-83
2022/10/27 09:30:11;;;;;;;12.25;2.35;;;;;;;;;;4954416;28;20035;-82
2022/10/27 09:32:38;;;;;;;7.63;2.50;;;;;;;;;;4938687;29;20027;-85
2022/10/27 09:35:09;;;;;;;10.00;2.10;;;;;;;;;;4939055;29;20078;-84
2022/10/27 09:37:40;;;;;;;7.07;2.30;;;;;;;;;;4954744;29;20426;-85
2022/10/27 09:40:13;;;;;;;7.22;2.13;;;;;;;;;;4939239;28;20105;-83
2022/10/27 09:42:39;;;;;;;7.10;2.05;;;;;;;;;;4954813;29;20386;-84
2022/10/27 09:45:16;;;;;;;6.22;2.17;;;;;;;;;;4968889;28;20035;-86
2022/10/27 09:47:44;;;;;;;13.70;1.98;;;;;;;;;;4990254;28;20037;-85
2022/10/27 09:50:47;;;;;;;6.22;2.00;;;;;;;;;;4973778;28;20517;-85
2022/10/27 09:53:41;;;;;;;7.97;2.15;;;;;;;;;;4935977;29;20494;-83
2022/10/27 09:56:08;;;;;;;;;;;;;;;;;;4938071;29;20465;-84
2022/10/27 09:58:46;;;;;;;9.23;2.20;;;;;;;;;;4937126;29;19918;-82
2022/10/27 10:01:11;;;;;;;8.73;1.85;;;;;;;;;;4937519;29;20031;-83
2022/10/27 10:03:37;;;;;;;7.50;2.30;;;;;;;;;;4934762;29;20412;-82
2022/10/27 10:06:05;;;;;;;4.53;1.70;;;;;;;;;;4933750;29;20075;-83
2022/10/27 10:08:34;;;;;;;6.47;2.28;;;;;;;;;;4917842;29;20039;-84
2022/10/27 10:11:00;;;;;;;4.95;1.70;;;;;;;;;;4933969;29;20553;-82
2022/10/27 10:13:27;;;;;;;4.95;1.80;;;;;;;;;;4921124;29;20433;-82
2022/10/27 10:16:05;;;;;;;7.72;1.77;;;;;;;;;;4941877;29;20553;-81
2022/10/27 10:18:31;;;;;;;7.32;2.03;;;;;;;;;;4934451;29;20130;-82
2022/10/27 10:20:58;;;;;;;4.82;1.70;;;;;;;;;;4918363;29;20118;-80
2022/10/27 10:23:26;;;;;;;4.97;1.55;;;;;;;;;;4934159;29;20036;-81
2022/10/27 10:25:53;;;;;;;3.80;1.75;;;;;;;;;;4934433;29;20539;-81
2022/10/27 10:28:38;;;;;;;6.05;1.70;;;;;;;;;;4955278;29;20055;-79
2022/10/27 10:31:06;;;;;;;9.25;2.20;;;;;;;;;;4969968;28;20031;-80
2022/10/27 10:33:34;;;;;;;6.18;1.88;;;;;;;;;;4937265;28;20031;-79
2022/10/27 10:36:02;;;;;;;4.32;1.90;;;;;;;;;;4938040;28;20043;-79
2022/10/27 10:38:35;;;;;;;3.72;1.70;;;;;;;;;;4969861;28;20549;-80
2022/10/27 10:41:15;;;;;;;4.03;1.58;;;;;;;;;;4938177;28;20074;-80
2022/10/27 10:43:41;;;;;;;8.15;2.10;;;;;;;;;;4954763;29;20383;-79
2022/10/27 10:46:17;;;;;;;7.47;2.10;;;;;;;;;;4953955;29;20031;-80
2022/10/27 10:48:49;;;;;;;6.18;1.65;;;;;;;;;;4953966;29;20386;-80
2022/10/27 10:51:33;;;;;;;7.28;1.90;;;;;;;;;;4954127;28;20114;-79
2022/10/27 10:54:03;;;;;;;8.30;1.88;;;;;;;;;;4954074;29;20520;-78
2022/10/27 10:56:31;;;;;;;4.95;1.75;;;;;;;;;;4953984;29;20167;-80
2022/10/27 10:59:08;;;;;;;2.65;1.60;;;;;;;;;;4954210;28;20546;-78
2022/10/27 11:01:47;;;;;;;6.53;1.63;;;;;;;;;;4969694;28;20106;-78
2022/10/27 11:04:16;;;;;;;6.30;1.70;;;;;;;;;;4937873;28;20032;-78
2022/10/27 11:07:03;;;;;;;5.85;1.63;;;;;;;;;;4955575;28;20031;-78
2022/10/27 11:09:38;;;;;;;7.40;1.90;;;;;;;;;;4957556;29;20094;-78
2022/10/27 11:12:06;;;;;;;4.57;1.70;;;;;;;;;;4973873;28;20023;-80
2022/10/27 11:14:32;;;;;;;3.38;1.70;;;;;;;;;;4974234;28;20031;-79
2022/10/27 11:17:00;;;;;;;3.67;1.50;;;;;;;;;;4957232;29;20051;-79
2022/10/27 11:19:27;;;;;;;4.30;1.48;;;;;;;;;;4958793;28;20179;-79
2022/10/27 11:21:58;;;;;;;5.10;1.60;;;;;;;;;;4973374;28;20070;-79
2022/10/27 11:24:37;;;;;;;4.53;1.40;;;;;;;;;;4957699;29;20055;-79
2022/10/27 11:27:04;;;;;;;2.50;1.42;;;;;;;;;;4973323;28;20037;-79
2022/10/27 11:30:05;;;;;;;6.22;1.60;;;;;;;;;;4957204;28;20135;-79
2022/10/27 11:32:39;;;;;;;8.93;1.80;;;;;;;;;;4959564;28;20062;-79
2022/10/27 11:35:13;;;;;;;6.22;1.52;;;;;;;;;;4959534;28;20041;-79
2022/10/27 11:37:48;;;;;;;2.90;1.45;;;;;;;;;;4975484;28;20146;-79
2022/10/27 11:40:42;;;;;;;8.88;1.55;;;;;;;;;;4959316;28;20039;-78
2022/10/27 11:43:20;;;;;;;5.75;1.48;;;;;;;;;;4959235;28;20070;-79
2022/10/27 11:46:03;;;;;;;8.07;1.70;;;;;;;;;;4959020;28;20536;-79
2022/10/27 11:48:39;;;;;;;4.35;1.30;;;;;;;;;;4959398;28;20034;-79
2022/10/27 11:51:21;;;;;;;5.35;1.60;;;;;;;;;;4959442;28;20042;-79
2022/10/27 11:53:49;;;;;;;2.83;1.20;;;;;;;;;;4959076;28;20653;-79
2022/10/27 11:56:40;;;;;;;4.03;1.45;;;;;;;;;;4942946;28;20034;-78
2022/10/27 11:59:24;;;;;;;2.78;1.30;;;;;;;;;;4958946;28;20484;-78
2022/10/27 12:02:04;;;;;;;5.47;1.40;;;;;;;;;;4974886;28;20051;-79
2022/10/27 12:05:00;;;;;;;5.20;1.52;;;;;;;;;;4974939;28;20097;-78
2022/10/27 12:07:47;;;;;;;3.60;1.40;;;;;;;;;;4956537;29;20047;-79
2022/10/27 12:10:25;;;;;;;6.65;1.50;;;;;;;;;;4957455;28;20097;-79
2022/10/27 12:12:58;;;;;;;2.13;1.23;;;;;;;;;;4956394;29;20114;-80
2022/10/27 12:15:32;;;;;;;9.77;1.77;;;;;;;;;;4972638;28;20102;-79
2022/10/27 12:18:01;;;;;;;3.03;1.33;;;;;;;;;;4957606;28;20455;-78
2022/10/27 12:20:53;;;;;;;7.35;1.52;;;;;;;;;;4956289;29;20051;-78
2022/10/27 12:23:38;;;;;;;11.05;1.88;;;;;;;;;;4961289;28;20051;-78
2022/10/27 12:26:06;;;;;;;14.00;2.17;;;;;;;;;;4972207;28;20055;-79
2022/10/27 12:28:33;;;;;;;9.30;1.83;;;;;;;;;;4955883;28;20074;-79
2022/10/27 12:31:01;;;;;;;4.75;1.90;;;;;;;;;;4955989;28;20020;-78
2022/10/27 12:33:35;;;;;;;8.52;2.17;;;;;;;;;;4956116;29;20114;-79
2022/10/27 12:36:05;;;;;;;8.23;1.75;;;;;;;;;;4955807;28;20135;-80
2022/10/27 12:38:36;;;;;;;4.78;1.63;;;;;;;;;;4971905;28;20055;-78
2022/10/27 12:41:34;;;;;;;8.57;2.30;;;;;;;;;;4957018;28;20029;-79
2022/10/27 12:44:21;;;;;;;6.95;2.00;;;;;;;;;;4971828;28;20035;-78
2022/10/27 12:47:24;;;;;;;8.80;2.35;;;;;;;;;;4957211;28;20530;-78
2022/10/27 12:49:50;;;;;;;5.60;2.10;;;;;;;;;;4958338;28;20047;-79
2022/10/27 12:52:22;;;;;;;6.25;2.30;;;;;;;;;;4971819;28;20031;-78
2022/10/27 12:55:09;;;;;;;5.32;2.00;;;;;;;;;;4955628;29;20031;-79
2022/10/27 12:57:50;;;;;;;8.05;2.75;;;;;;;;;;4971915;28;20106;-78
2022/10/27 13:00:20;;;;;;;8.57;2.60;;;;;;;;;;4971560;28;20024;-79
2022/10/27 13:03:13;;;;;;;7.03;2.60;;;;;;;;;;4939315;29;20051;-78
2022/10/27 13:05:48;;;;;;;4.68;2.25;;;;;;;;;;4956583;28;20542;-78
2022/10/27 13:08:40;;;;;;;6.78;2.92;;;;;;;;;;4957090;28;20027;-79
2022/10/27 13:11:14;;;;;;;5.85;2.15;;;;;;;;;;4956548;28;20034;-78
2022/10/27 13:13:49;;;;;;;3.10;2.15;;;;;;;;;;4971332;28;20074;-79
2022/10/27 13:16:34;;;;;;;7.13;1.90;;;;;;;;;;4971203;28;20035;-78
2022/10/27 13:19:24;;;;;;;5.85;2.10;;;;;;;;;;4955519;29;20377;-79
2022/10/27 13:22:13;;;;;;;7.00;2.38;;;;;;;;;;4956597;28;20035;-78
2022/10/27 13:25:03;;;;;;;4.07;2.03;;;;;;;;;;4955000;29;20135;-79
2022/10/27 13:28:24;;;;;;;5.40;2.00;;;;;;;;;;4956167;28;20082;-79
2022/10/27 13:31:05;;;;;;;2.53;1.67;;;;;;;;;;4934324;28;20509;-79
2022/10/27 13:33:38;;;;;;;3.75;1.88;;;;;;;;;;4971028;28;20059;-79
2022/10/27 13:36:23;;;;;;;3.58;1.73;;;;;;;;;;4956012;28;20062;-78
2022/10/27 13:38:49;;;;;;;5.25;1.98;;;;;;;;;;4938747;28;20031;-78
2022/10/27 13:41:48;;;;;;;5.03;2.10;;;;;;;;;;4955061;29;20035;-79
2022/10/27 13:44:40;;;;;;;3.55;1.90;;;;;;;;;;4971048;28;20039;-79
2022/10/27 13:47:11;;;;;;;3.47;2.05;;;;;;;;;;4940381;28;20039;-79
2022/10/27 13:49:39;;;;;;;5.35;1.70;;;;;;;;;;4938680;29;20023;-79
2022/10/27 13:52:14;;;;;;;3.92;1.80;;;;;;;;;;4970734;28;20031;-79
2022/10/27 13:55:06;;;;;;;2.70;1.60;;;;;;;;;;4956203;28;20029;-78
2022/10/27 13:58:05;;;;;;;5.50;1.98;;;;;;;;;;4958988;28;20122;-78
2022/10/27 14:00:45;;;;;;;4.18;1.80;;;;;;;;;;4956044;28;20086;-79
2022/10/27 14:03:35;;;;;;;3.17;1.60;;;;;;;;;;4955542;28;20047;-78
2022/10/27 14:06:00;;;;;;;3.95;1.77;;;;;;;;;;4955556;28;20047;-78
2022/10/27 14:08:31;;;;;;;3.75;1.77;;;;;;;;;;4954620;29;20031;-78
2022/10/27 14:10:59;;;;;;;5.55;1.63;;;;;;;;;;4954516;28;20485;-78
2022/10/27 14:13:33;;;;;;;5.25;1.63;;;;;;;;;;4954324;29;20127;-79
2022/10/27 14:16:01;;;;;;;2.28;1.48;;;;;;;;;;4954472;29;20054;-78
2022/10/27 14:18:37;;;;;;;3.92;1.60;;;;;;;;;;4938241;28;20078;-79
2022/10/27 14:21:20;;;;;;;3.45;1.65;;;;;;;;;;4955556;28;20114;-79
2022/10/27 14:23:46;;;;;;;4.75;1.88;;;;;;;;;;4938080;28;20483;-79
2022/10/27 14:26:29;;;;;;;3.90;1.80;;;;;;;;;;4955622;28;20042;-78
2022/10/27 14:28:55;;;;;;;9.35;2.38;;;;;;;;;;4969105;28;20102;-79
2022/10/27 14:31:22;;;;;;;4.50;1.90;;;;;;;;;;4954127;29;20478;-79
2022/10/27 14:33:49;;;;;;;3.97;2.13;;;;;;;;;;4954114;28;20051;-78
2022/10/27 14:36:41;;;;;;;4.55;1.98;;;;;;;;;;4954171;29;20118;-78
2022/10/27 14:39:06;;;;;;;3.80;1.70;;;;;;;;;;4956957;28;20043;-78
2022/10/27 14:41:34;;;;;;;3.83;1.77;;;;;;;;;;4956883;28;20027;-78
2022/10/27 14:44:01;;;;;;;7.47;2.00;;;;;;;;;;4959117;28;20031;-78
2022/10/27 14:46:37;;;;;;;3.13;1.98;;;;;;;;;;4974039;28;20147;-78
2022/10/27 14:49:05;;;;;;;4.90;2.20;;;;;;;;;;4957964;29;20406;-78
2022/10/27 14:51:34;;;;;;;3.20;1.58;;;;;;;;;;4957913;29;20078;-78
2022/10/27 14:54:00;;;;;;;3.10;1.92;;;;;;;;;;4958977;28;20130;-78
2022/10/27 14:56:27;;;;;;;5.70;1.77;;;;;;;;;;4941743;29;20117;-78
2022/10/27 14:59:01;;;;;;;6.18;1.70;;;;;;;;;;4957680;29;20062;-78
2022/10/27 15:01:29;;;;;;;;;;;;;;;;;;4958517;29;20027;-78
2022/10/27 15:03:56;;;;;;;6.95;2.00;;;;;;;;;;4957460;28;20009;-79
2022/10/27 15:06:22;;;;;;;3.38;1.63;;;;;;;;;;4957865;29;20027;-78